sensor_id;sensor_type;location;lat;lon;timestamp;P1;durP1;ratioP1;P2;durP2;ratioP2
39308;SDS011;26019;47.510;19.122;2024-03-08T00:05:45;19.30;;;12.57;;
39308;SDS011;26019;47.510;19.122;2024-03-08T00:15:47;21.33;;;11.23;;
39308;SDS011;26019;47.510;19.122;2024-03-08T00:25:49;20.75;;;11.75;;
39308;SDS011;26019;47.510;19.122;2024-03-08T00:35:50;21.70;;;12.82;;
39308;SDS011;26019;47.510;19.122;2024-03-08T00:45:52;20.85;;;13.20;;
39308;SDS011;26019;47.510;19.122;2024-03-08T00:55:54;23.88;;;12.98;;
39308;SDS011;26019;47.510;19.122;2024-03-08T01:05:56;19.58;;;12.95;;
39308;SDS011;26019;47.510;19.122;2024-03-08T01:16:00;24.70;;;13.98;;
39308;SDS011;26019;47.510;19.122;2024-03-08T01:26:03;23.90;;;13.82;;
39308;SDS011;26019;47.510;19.122;2024-03-08T01:36:05;23.23;;;13.60;;
39308;SDS011;26019;47.510;19.122;2024-03-08T01:46:15;27.08;;;15.15;;
39308;SDS011;26019;47.510;19.122;2024-03-08T01:56:22;26.83;;;15.53;;
39308;SDS011;26019;47.510;19.122;2024-03-08T02:06:24;31.38;;;17.50;;
39308;SDS011;26019;47.510;19.122;2024-03-08T02:16:26;30.70;;;17.73;;
39308;SDS011;26019;47.510;19.122;2024-03-08T02:26:31;34.72;;;18.67;;
39308;SDS011;26019;47.510;19.122;2024-03-08T02:36:33;34.60;;;19.20;;
39308;SDS011;26019;47.510;19.122;2024-03-08T02:46:36;42.40;;;22.43;;
39308;SDS011;26019;47.510;19.122;2024-03-08T02:56:38;39.28;;;20.90;;
39308;SDS011;26019;47.510;19.122;2024-03-08T03:06:40;48.60;;;22.48;;
39308;SDS011;26019;47.510;19.122;2024-03-08T03:16:42;47.05;;;21.73;;
39308;SDS011;26019;47.510;19.122;2024-03-08T03:26:45;42.60;;;19.83;;
39308;SDS011;26019;47.510;19.122;2024-03-08T03:36:48;38.65;;;20.85;;
39308;SDS011;26019;47.510;19.122;2024-03-08T03:46:51;44.53;;;22.63;;
39308;SDS011;26019;47.510;19.122;2024-03-08T03:56:53;39.65;;;20.98;;
39308;SDS011;26019;47.510;19.122;2024-03-08T04:06:57;40.83;;;20.88;;
39308;SDS011;26019;47.510;19.122;2024-03-08T04:16:59;42.03;;;21.45;;
39308;SDS011;26019;47.510;19.122;2024-03-08T04:27:01;45.00;;;22.10;;
39308;SDS011;26019;47.510;19.122;2024-03-08T04:37:05;44.33;;;22.30;;
39308;SDS011;26019;47.510;19.122;2024-03-08T04:47:07;40.17;;;21.02;;
39308;SDS011;26019;47.510;19.122;2024-03-08T04:57:09;39.65;;;20.60;;
39308;SDS011;26019;47.510;19.122;2024-03-08T05:07:16;45.70;;;22.30;;
39308;SDS011;26019;47.510;19.122;2024-03-08T05:17:19;44.00;;;22.15;;
39308;SDS011;26019;47.510;19.122;2024-03-08T05:27:21;41.93;;;21.50;;
39308;SDS011;26019;47.510;19.122;2024-03-08T05:37:23;43.80;;;22.40;;
39308;SDS011;26019;47.510;19.122;2024-03-08T05:47:25;45.97;;;22.15;;
39308;SDS011;26019;47.510;19.122;2024-03-08T05:57:32;49.92;;;22.45;;
39308;SDS011;26019;47.510;19.122;2024-03-08T06:07:34;40.07;;;21.23;;
39308;SDS011;26019;47.510;19.122;2024-03-08T06:17:36;40.95;;;20.25;;
39308;SDS011;26019;47.510;19.122;2024-03-08T06:27:40;42.72;;;21.55;;
39308;SDS011;26019;47.510;19.122;2024-03-08T06:37:44;47.13;;;21.95;;
39308;SDS011;26019;47.510;19.122;2024-03-08T06:47:46;43.53;;;22.48;;
39308;SDS011;26019;47.510;19.122;2024-03-08T07:07:52;43.47;;;21.75;;
39308;SDS011;26019;47.510;19.122;2024-03-08T07:27:58;40.88;;;21.77;;
39308;SDS011;26019;47.510;19.122;2024-03-08T07:38:03;39.50;;;20.20;;
39308;SDS011;26019;47.510;19.122;2024-03-08T07:48:09;43.45;;;22.30;;
39308;SDS011;26019;47.510;19.122;2024-03-08T07:58:14;42.63;;;22.23;;
39308;SDS011;26019;47.510;19.122;2024-03-08T08:08:19;38.78;;;21.33;;
39308;SDS011;26019;47.510;19.122;2024-03-08T08:18:20;43.45;;;20.65;;
39308;SDS011;26019;47.510;19.122;2024-03-08T08:28:27;46.20;;;22.23;;
39308;SDS011;26019;47.510;19.122;2024-03-08T08:38:31;53.45;;;23.10;;
39308;SDS011;26019;47.510;19.122;2024-03-08T08:48:33;45.20;;;21.63;;
39308;SDS011;26019;47.510;19.122;2024-03-08T08:58:37;48.45;;;23.92;;
39308;SDS011;26019;47.510;19.122;2024-03-08T09:08:48;50.45;;;23.80;;
39308;SDS011;26019;47.510;19.122;2024-03-08T09:18:50;48.45;;;22.55;;
39308;SDS011;26019;47.510;19.122;2024-03-08T09:28:52;48.40;;;23.60;;
39308;SDS011;26019;47.510;19.122;2024-03-08T09:38:56;51.33;;;23.75;;
39308;SDS011;26019;47.510;19.122;2024-03-08T09:48:57;43.95;;;22.35;;
39308;SDS011;26019;47.510;19.122;2024-03-08T09:59:01;45.40;;;23.17;;
39308;SDS011;26019;47.510;19.122;2024-03-08T10:09:22;47.05;;;21.92;;
39308;SDS011;26019;47.510;19.122;2024-03-08T10:19:27;45.38;;;21.20;;
39308;SDS011;26019;47.510;19.122;2024-03-08T10:29:33;43.55;;;20.95;;
39308;SDS011;26019;47.510;19.122;2024-03-08T10:39:38;37.35;;;19.13;;
39308;SDS011;26019;47.510;19.122;2024-03-08T10:49:50;35.63;;;18.33;;
39308;SDS011;26019;47.510;19.122;2024-03-08T10:59:57;42.30;;;19.47;;
39308;SDS011;26019;47.510;19.122;2024-03-08T11:20:20;36.13;;;17.48;;
39308;SDS011;26019;47.510;19.122;2024-03-08T11:30:23;38.90;;;20.50;;
39308;SDS011;26019;47.510;19.122;2024-03-08T11:40:26;37.87;;;19.50;;
39308;SDS011;26019;47.510;19.122;2024-03-08T11:50:29;39.40;;;20.90;;
39308;SDS011;26019;47.510;19.122;2024-03-08T12:00:32;36.72;;;20.30;;
39308;SDS011;26019;47.510;19.122;2024-03-08T12:10:38;37.40;;;20.77;;
39308;SDS011;26019;47.510;19.122;2024-03-08T12:20:40;31.52;;;17.38;;
39308;SDS011;26019;47.510;19.122;2024-03-08T12:30:46;29.65;;;17.95;;
39308;SDS011;26019;47.510;19.122;2024-03-08T12:40:50;29.52;;;18.38;;
39308;SDS011;26019;47.510;19.122;2024-03-08T12:50:52;26.42;;;16.27;;
39308;SDS011;26019;47.510;19.122;2024-03-08T13:10:57;27.02;;;15.77;;
39308;SDS011;26019;47.510;19.122;2024-03-08T13:21:01;36.65;;;20.60;;
39308;SDS011;26019;47.510;19.122;2024-03-08T13:31:11;38.58;;;21.08;;
39308;SDS011;26019;47.510;19.122;2024-03-08T13:41:18;38.35;;;19.60;;
39308;SDS011;26019;47.510;19.122;2024-03-08T13:51:24;35.95;;;19.33;;
39308;SDS011;26019;47.510;19.122;2024-03-08T14:01:29;33.80;;;17.63;;
39308;SDS011;26019;47.510;19.122;2024-03-08T14:11:42;29.88;;;16.80;;
39308;SDS011;26019;47.510;19.122;2024-03-08T14:21:48;34.50;;;18.20;;
39308;SDS011;26019;47.510;19.122;2024-03-08T14:31:58;38.80;;;19.05;;
39308;SDS011;26019;47.510;19.122;2024-03-08T14:42:01;34.67;;;18.70;;
39308;SDS011;26019;47.510;19.122;2024-03-08T14:52:04;40.35;;;18.90;;
39308;SDS011;26019;47.510;19.122;2024-03-08T15:02:27;35.47;;;18.50;;
39308;SDS011;26019;47.510;19.122;2024-03-08T15:12:29;31.50;;;17.77;;
39308;SDS011;26019;47.510;19.122;2024-03-08T15:22:31;33.22;;;17.23;;
39308;SDS011;26019;47.510;19.122;2024-03-08T15:32:33;36.10;;;17.83;;
39308;SDS011;26019;47.510;19.122;2024-03-08T15:42:35;36.47;;;19.70;;
39308;SDS011;26019;47.510;19.122;2024-03-08T15:52:46;34.38;;;17.88;;
39308;SDS011;26019;47.510;19.122;2024-03-08T16:02:53;30.63;;;18.15;;
39308;SDS011;26019;47.510;19.122;2024-03-08T16:12:56;37.88;;;18.60;;
39308;SDS011;26019;47.510;19.122;2024-03-08T16:22:58;37.50;;;18.45;;
39308;SDS011;26019;47.510;19.122;2024-03-08T16:33:00;34.03;;;18.50;;
39308;SDS011;26019;47.510;19.122;2024-03-08T16:43:02;36.55;;;17.38;;
39308;SDS011;26019;47.510;19.122;2024-03-08T16:53:07;34.50;;;18.95;;
39308;SDS011;26019;47.510;19.122;2024-03-08T17:03:11;34.58;;;18.67;;
39308;SDS011;26019;47.510;19.122;2024-03-08T17:13:14;38.92;;;20.45;;
39308;SDS011;26019;47.510;19.122;2024-03-08T17:23:18;37.40;;;19.63;;
39308;SDS011;26019;47.510;19.122;2024-03-08T17:33:24;40.03;;;20.67;;
39308;SDS011;26019;47.510;19.122;2024-03-08T17:43:33;34.65;;;18.77;;
39308;SDS011;26019;47.510;19.122;2024-03-08T17:53:40;37.00;;;19.85;;
39308;SDS011;26019;47.510;19.122;2024-03-08T18:03:43;41.70;;;21.67;;
39308;SDS011;26019;47.510;19.122;2024-03-08T18:13:45;38.08;;;20.50;;
39308;SDS011;26019;47.510;19.122;2024-03-08T18:23:51;36.28;;;20.85;;
39308;SDS011;26019;47.510;19.122;2024-03-08T18:34:07;34.75;;;18.90;;
39308;SDS011;26019;47.510;19.122;2024-03-08T18:44:10;38.63;;;20.25;;
39308;SDS011;26019;47.510;19.122;2024-03-08T18:54:15;40.95;;;20.75;;
39308;SDS011;26019;47.510;19.122;2024-03-08T19:04:17;37.70;;;21.45;;
39308;SDS011;26019;47.510;19.122;2024-03-08T19:14:21;39.90;;;22.27;;
39308;SDS011;26019;47.510;19.122;2024-03-08T19:24:22;37.97;;;21.25;;
39308;SDS011;26019;47.510;19.122;2024-03-08T19:34:24;43.47;;;21.45;;
39308;SDS011;26019;47.510;19.122;2024-03-08T19:44:29;37.58;;;20.77;;
39308;SDS011;26019;47.510;19.122;2024-03-08T19:54:32;41.97;;;22.13;;
39308;SDS011;26019;47.510;19.122;2024-03-08T20:04:37;38.80;;;22.00;;
39308;SDS011;26019;47.510;19.122;2024-03-08T20:14:39;45.08;;;22.42;;
39308;SDS011;26019;47.510;19.122;2024-03-08T20:24:42;44.47;;;24.73;;
39308;SDS011;26019;47.510;19.122;2024-03-08T20:34:45;42.23;;;23.70;;
39308;SDS011;26019;47.510;19.122;2024-03-08T20:44:48;42.80;;;24.40;;
39308;SDS011;26019;47.510;19.122;2024-03-08T20:54:51;45.10;;;23.70;;
39308;SDS011;26019;47.510;19.122;2024-03-08T21:04:56;44.53;;;24.42;;
39308;SDS011;26019;47.510;19.122;2024-03-08T21:15:00;48.15;;;23.98;;
39308;SDS011;26019;47.510;19.122;2024-03-08T21:25:06;43.25;;;22.65;;
39308;SDS011;26019;47.510;19.122;2024-03-08T21:35:09;42.72;;;23.33;;
39308;SDS011;26019;47.510;19.122;2024-03-08T21:45:12;44.23;;;24.07;;
39308;SDS011;26019;47.510;19.122;2024-03-08T21:55:21;55.85;;;24.35;;
39308;SDS011;26019;47.510;19.122;2024-03-08T22:05:31;45.20;;;23.42;;
39308;SDS011;26019;47.510;19.122;2024-03-08T22:15:34;47.17;;;25.08;;
39308;SDS011;26019;47.510;19.122;2024-03-08T22:25:36;45.65;;;24.27;;
39308;SDS011;26019;47.510;19.122;2024-03-08T22:35:40;49.83;;;24.02;;
39308;SDS011;26019;47.510;19.122;2024-03-08T22:45:44;62.63;;;24.95;;
39308;SDS011;26019;47.510;19.122;2024-03-08T22:55:49;51.13;;;25.70;;
39308;SDS011;26019;47.510;19.122;2024-03-08T23:05:54;53.13;;;26.70;;
39308;SDS011;26019;47.510;19.122;2024-03-08T23:15:59;50.60;;;24.77;;
39308;SDS011;26019;47.510;19.122;2024-03-08T23:26:03;51.28;;;26.63;;
39308;SDS011;26019;47.510;19.122;2024-03-08T23:36:06;47.05;;;24.23;;
39308;SDS011;26019;47.510;19.122;2024-03-08T23:46:10;45.72;;;25.02;;
39308;SDS011;26019;47.510;19.122;2024-03-08T23:56:12;45.15;;;24.40;;
